Wabush, Canada
Current Conditions -  °F | °C
As of 1:00 AM on Saturday 25 Oct 2014 (Local Time) from CYWK Reporting Station
Scattered Clouds Scattered Clouds  
Wind Chill: 27°   Ceiling: Unl
Heat Index: 27°   Visibility: 9mi
Dew Point: 27°   Wind: 0mph
Humidity: 100%   Direction: NA
Pressure: 29.81"   Gusts: NA
Location:  52.9°N, 66.87°W
Report Text: CYWK 250400Z AUTO 00000KT 9SM SCT230 M03/M03 A2981 RMK ICG SLP120
Loading
Personal Weather Stations






























Interactive Weather Map New forecast layout! Learn more

10-Day Weather Forecast

Advertisements
Track Severe Weather on mobile